sensor_id;sensor_type;location;lat;lon;timestamp;pressure;altitude;pressure_sealevel;temperature;humidity
69200;BME280;56313;49.804;9.952;2022-07-30T00:00:42;99235.63;;;17.26;86.02
69200;BME280;56313;49.804;9.952;2022-07-30T00:03:07;99239.09;;;17.04;85.20
69200;BME280;56313;49.804;9.952;2022-07-30T00:05:33;99238.03;;;16.99;85.61
69200;BME280;56313;49.804;9.952;2022-07-30T00:07:58;99236.91;;;17.08;85.81
69200;BME280;56313;49.804;9.952;2022-07-30T00:10:31;99241.66;;;16.97;85.97
69200;BME280;56313;49.804;9.952;2022-07-30T00:13:00;99238.16;;;17.12;86.10
69200;BME280;56313;49.804;9.952;2022-07-30T00:15:25;99246.72;;;17.14;86.37
69200;BME280;56313;49.804;9.952;2022-07-30T00:17:52;99250.41;;;17.13;85.69
69200;BME280;56313;49.804;9.952;2022-07-30T00:20:20;99259.56;;;16.95;85.77
69200;BME280;56313;49.804;9.952;2022-07-30T00:22:46;99253.19;;;16.90;86.51
69200;BME280;56313;49.804;9.952;2022-07-30T00:25:12;99254.94;;;16.82;86.41
69200;BME280;56313;49.804;9.952;2022-07-30T00:27:37;99260.88;;;16.84;86.73
69200;BME280;56313;49.804;9.952;2022-07-30T00:30:04;99261.13;;;16.90;86.39
69200;BME280;56313;49.804;9.952;2022-07-30T00:32:30;99267.56;;;16.80;86.11
69200;BME280;56313;49.804;9.952;2022-07-30T00:34:55;99266.41;;;16.68;86.56
69200;BME280;56313;49.804;9.952;2022-07-30T00:37:21;99265.78;;;16.66;86.56
69200;BME280;56313;49.804;9.952;2022-07-30T00:39:46;99266.88;;;16.71;86.03
69200;BME280;56313;49.804;9.952;2022-07-30T00:42:12;99265.28;;;16.55;86.20
69200;BME280;56313;49.804;9.952;2022-07-30T00:44:37;99262.28;;;16.43;86.52
69200;BME280;56313;49.804;9.952;2022-07-30T00:47:03;99273.03;;;16.42;86.73
69200;BME280;56313;49.804;9.952;2022-07-30T00:49:31;99274.63;;;16.36;86.70
69200;BME280;56313;49.804;9.952;2022-07-30T00:51:57;99273.91;;;16.27;87.28
69200;BME280;56313;49.804;9.952;2022-07-30T00:54:22;99276.72;;;16.26;87.88
69200;BME280;56313;49.804;9.952;2022-07-30T00:56:47;99271.81;;;16.23;87.46
69200;BME280;56313;49.804;9.952;2022-07-30T00:59:13;99278.72;;;16.24;87.59
69200;BME280;56313;49.804;9.952;2022-07-30T01:01:39;99277.81;;;16.16;87.74
69200;BME280;56313;49.804;9.952;2022-07-30T01:04:04;99279.38;;;16.26;87.62
69200;BME280;56313;49.804;9.952;2022-07-30T01:06:35;99281.19;;;16.10;87.60
69200;BME280;56313;49.804;9.952;2022-07-30T01:09:01;99276.91;;;16.24;87.59
69200;BME280;56313;49.804;9.952;2022-07-30T01:11:32;99280.28;;;16.18;87.67
69200;BME280;56313;49.804;9.952;2022-07-30T01:13:58;99271.63;;;16.09;88.20
69200;BME280;56313;49.804;9.952;2022-07-30T01:16:24;99280.09;;;16.04;88.62
69200;BME280;56313;49.804;9.952;2022-07-30T01:18:50;99283.75;;;16.03;88.13
69200;BME280;56313;49.804;9.952;2022-07-30T01:21:38;99284.72;;;16.02;88.37
69200;BME280;56313;49.804;9.952;2022-07-30T01:24:29;99282.56;;;16.21;88.34
69200;BME280;56313;49.804;9.952;2022-07-30T01:26:58;99283.72;;;16.33;87.97
69200;BME280;56313;49.804;9.952;2022-07-30T01:29:29;99289.53;;;16.44;87.38
69200;BME280;56313;49.804;9.952;2022-07-30T01:31:56;99283.41;;;16.58;87.16
69200;BME280;56313;49.804;9.952;2022-07-30T01:34:27;99283.19;;;16.60;86.89
69200;BME280;56313;49.804;9.952;2022-07-30T01:36:56;99279.84;;;16.51;86.61
69200;BME280;56313;49.804;9.952;2022-07-30T01:39:25;99280.59;;;16.82;86.82
69200;BME280;56313;49.804;9.952;2022-07-30T01:41:53;99286.50;;;16.84;85.52
69200;BME280;56313;49.804;9.952;2022-07-30T01:44:23;99283.41;;;16.58;85.82
69200;BME280;56313;49.804;9.952;2022-07-30T01:46:52;99275.50;;;16.43;86.66
69200;BME280;56313;49.804;9.952;2022-07-30T01:49:20;99279.25;;;16.19;87.00
69200;BME280;56313;49.804;9.952;2022-07-30T01:51:47;99277.09;;;16.23;87.26
69200;BME280;56313;49.804;9.952;2022-07-30T01:54:15;99273.91;;;16.27;87.22
69200;BME280;56313;49.804;9.952;2022-07-30T01:56:43;99271.69;;;16.16;87.21
69200;BME280;56313;49.804;9.952;2022-07-30T01:59:11;99270.00;;;16.08;87.80
69200;BME280;56313;49.804;9.952;2022-07-30T02:01:38;99270.25;;;16.13;87.81
69200;BME280;56313;49.804;9.952;2022-07-30T02:04:03;99270.59;;;16.25;87.42
69200;BME280;56313;49.804;9.952;2022-07-30T02:06:41;99268.44;;;16.29;86.69
69200;BME280;56313;49.804;9.952;2022-07-30T02:09:09;99268.69;;;16.19;87.09
69200;BME280;56313;49.804;9.952;2022-07-30T02:11:43;99279.81;;;16.14;87.08
69200;BME280;56313;49.804;9.952;2022-07-30T02:14:45;99279.44;;;16.02;87.34
69200;BME280;56313;49.804;9.952;2022-07-30T02:17:17;99284.28;;;15.99;87.45
69200;BME280;56313;49.804;9.952;2022-07-30T02:19:50;99281.59;;;15.83;87.50
69200;BME280;56313;49.804;9.952;2022-07-30T02:22:18;99284.59;;;15.80;87.50
69200;BME280;56313;49.804;9.952;2022-07-30T02:24:46;99276.41;;;15.90;87.30
69200;BME280;56313;49.804;9.952;2022-07-30T02:27:17;99278.69;;;15.93;87.02
69200;BME280;56313;49.804;9.952;2022-07-30T02:29:45;99280.59;;;15.84;87.07
69200;BME280;56313;49.804;9.952;2022-07-30T02:32:14;99288.13;;;15.96;87.15
69200;BME280;56313;49.804;9.952;2022-07-30T02:34:41;99288.44;;;15.93;86.35
69200;BME280;56313;49.804;9.952;2022-07-30T02:37:09;99287.81;;;15.91;86.21
69200;BME280;56313;49.804;9.952;2022-07-30T02:39:37;99290.72;;;15.81;86.52
69200;BME280;56313;49.804;9.952;2022-07-30T02:42:05;99290.25;;;15.77;86.60
69200;BME280;56313;49.804;9.952;2022-07-30T02:44:32;99279.78;;;15.84;87.41
69200;BME280;56313;49.804;9.952;2022-07-30T02:47:01;99282.81;;;16.11;86.44
69200;BME280;56313;49.804;9.952;2022-07-30T02:49:28;99279.81;;;16.14;86.72
69200;BME280;56313;49.804;9.952;2022-07-30T02:51:56;99288.09;;;16.11;86.60
69200;BME280;56313;49.804;9.952;2022-07-30T02:54:23;99299.84;;;16.08;86.57
69200;BME280;56313;49.804;9.952;2022-07-30T02:56:52;99300.50;;;16.11;87.17
69200;BME280;56313;49.804;9.952;2022-07-30T02:59:22;99297.50;;;16.14;86.86
69200;BME280;56313;49.804;9.952;2022-07-30T03:01:52;99301.41;;;16.18;86.87
69200;BME280;56313;49.804;9.952;2022-07-30T03:04:19;99304.78;;;16.12;87.05
69200;BME280;56313;49.804;9.952;2022-07-30T03:06:47;99301.13;;;16.13;87.24
69200;BME280;56313;49.804;9.952;2022-07-30T03:09:15;99299.19;;;16.37;86.96
69200;BME280;56313;49.804;9.952;2022-07-30T03:11:41;99299.13;;;16.30;86.64
69200;BME280;56313;49.804;9.952;2022-07-30T03:14:08;99294.75;;;16.07;87.58
69200;BME280;56313;49.804;9.952;2022-07-30T03:16:36;99302.50;;;16.39;87.99
69200;BME280;56313;49.804;9.952;2022-07-30T03:19:06;99303.34;;;18.34;83.21
69200;BME280;56313;49.804;9.952;2022-07-30T03:21:34;99297.94;;;16.69;83.73
69200;BME280;56313;49.804;9.952;2022-07-30T03:24:01;99303.09;;;18.22;83.42
69200;BME280;56313;49.804;9.952;2022-07-30T03:26:28;99305.75;;;17.94;81.08
69200;BME280;56313;49.804;9.952;2022-07-30T03:28:54;99311.09;;;17.00;82.25
69200;BME280;56313;49.804;9.952;2022-07-30T03:31:23;99320.59;;;17.09;83.49
69200;BME280;56313;49.804;9.952;2022-07-30T03:33:51;99319.59;;;17.89;82.09
69200;BME280;56313;49.804;9.952;2022-07-30T03:36:17;99315.81;;;17.04;82.45
69200;BME280;56313;49.804;9.952;2022-07-30T03:38:44;99319.75;;;17.08;82.46
69200;BME280;56313;49.804;9.952;2022-07-30T03:41:10;99317.63;;;16.82;83.90
69200;BME280;56313;49.804;9.952;2022-07-30T03:43:37;99315.94;;;17.62;85.32
69200;BME280;56313;49.804;9.952;2022-07-30T03:46:04;99314.44;;;17.52;81.45
69200;BME280;56313;49.804;9.952;2022-07-30T03:48:35;99319.41;;;17.62;83.83
69200;BME280;56313;49.804;9.952;2022-07-30T03:51:02;99314.16;;;18.89;77.02
69200;BME280;56313;49.804;9.952;2022-07-30T03:53:33;99316.84;;;18.40;78.15
69200;BME280;56313;49.804;9.952;2022-07-30T03:56:01;99320.22;;;18.69;78.28
69200;BME280;56313;49.804;9.952;2022-07-30T03:58:27;99331.78;;;17.83;78.66
69200;BME280;56313;49.804;9.952;2022-07-30T04:00:53;99341.44;;;16.82;82.23
69200;BME280;56313;49.804;9.952;2022-07-30T04:03:27;99328.53;;;16.57;83.69
69200;BME280;56313;49.804;9.952;2022-07-30T04:05:52;99337.63;;;16.54;83.70
69200;BME280;56313;49.804;9.952;2022-07-30T04:08:18;99347.06;;;16.94;85.10
69200;BME280;56313;49.804;9.952;2022-07-30T04:10:43;99337.63;;;16.69;83.46
69200;BME280;56313;49.804;9.952;2022-07-30T04:13:09;99344.59;;;17.29;80.74
69200;BME280;56313;49.804;9.952;2022-07-30T04:15:42;99341.44;;;16.82;83.59
69200;BME280;56313;49.804;9.952;2022-07-30T04:18:15;99344.00;;;16.75;82.97
69200;BME280;56313;49.804;9.952;2022-07-30T04:20:45;99347.59;;;16.67;83.76
69200;BME280;56313;49.804;9.952;2022-07-30T04:23:13;99352.53;;;16.92;82.67
69200;BME280;56313;49.804;9.952;2022-07-30T04:25:39;99348.94;;;16.63;83.45
69200;BME280;56313;49.804;9.952;2022-07-30T04:28:08;99354.88;;;16.50;83.62
69200;BME280;56313;49.804;9.952;2022-07-30T04:30:34;99361.47;;;17.06;82.53
69200;BME280;56313;49.804;9.952;2022-07-30T04:33:01;99358.63;;;16.93;83.66
69200;BME280;56313;49.804;9.952;2022-07-30T04:35:32;99361.50;;;18.43;77.09
69200;BME280;56313;49.804;9.952;2022-07-30T04:37:58;99361.50;;;17.79;79.54
69200;BME280;56313;49.804;9.952;2022-07-30T04:40:24;99358.34;;;18.19;77.73
69200;BME280;56313;49.804;9.952;2022-07-30T04:42:50;99359.97;;;17.41;80.04
69200;BME280;56313;49.804;9.952;2022-07-30T04:45:16;99363.94;;;17.52;80.12
69200;BME280;56313;49.804;9.952;2022-07-30T04:47:44;99372.44;;;17.97;81.67
69200;BME280;56313;49.804;9.952;2022-07-30T04:50:10;99363.16;;;17.14;79.95
69200;BME280;56313;49.804;9.952;2022-07-30T04:52:36;99366.53;;;16.56;82.63
69200;BME280;56313;49.804;9.952;2022-07-30T04:55:05;99361.91;;;16.58;83.30
69200;BME280;56313;49.804;9.952;2022-07-30T04:57:32;99363.03;;;16.85;82.34
69200;BME280;56313;49.804;9.952;2022-07-30T05:00:00;99370.56;;;17.04;84.64
69200;BME280;56313;49.804;9.952;2022-07-30T05:02:29;99371.28;;;16.61;82.41
69200;BME280;56313;49.804;9.952;2022-07-30T05:04:56;99372.50;;;17.10;81.17
69200;BME280;56313;49.804;9.952;2022-07-30T05:07:23;99379.13;;;16.69;82.10
69200;BME280;56313;49.804;9.952;2022-07-30T05:09:49;99373.94;;;16.61;82.67
69200;BME280;56313;49.804;9.952;2022-07-30T05:12:15;99378.25;;;16.99;81.97
69200;BME280;56313;49.804;9.952;2022-07-30T05:14:40;99384.28;;;17.07;81.53
69200;BME280;56313;49.804;9.952;2022-07-30T05:17:06;99378.31;;;16.68;81.90
69200;BME280;56313;49.804;9.952;2022-07-30T05:19:31;99385.53;;;16.59;82.20
69200;BME280;56313;49.804;9.952;2022-07-30T05:21:57;99385.59;;;16.66;82.43
69200;BME280;56313;49.804;9.952;2022-07-30T05:24:23;99389.72;;;16.69;82.26
69200;BME280;56313;49.804;9.952;2022-07-30T05:26:49;99385.41;;;16.68;82.89
69200;BME280;56313;49.804;9.952;2022-07-30T05:29:14;99385.34;;;16.46;83.35
69200;BME280;56313;49.804;9.952;2022-07-30T05:31:39;99383.41;;;16.40;83.57
69200;BME280;56313;49.804;9.952;2022-07-30T05:34:05;99383.59;;;16.53;83.31
69200;BME280;56313;49.804;9.952;2022-07-30T05:36:31;99393.81;;;16.26;83.66
69200;BME280;56313;49.804;9.952;2022-07-30T05:38:57;99393.75;;;17.60;85.77
69200;BME280;56313;49.804;9.952;2022-07-30T05:41:22;99396.09;;;16.75;82.24
69200;BME280;56313;49.804;9.952;2022-07-30T05:43:48;99400.00;;;16.33;83.11
69200;BME280;56313;49.804;9.952;2022-07-30T05:46:13;99392.88;;;16.19;83.93
69200;BME280;56313;49.804;9.952;2022-07-30T05:48:38;99387.97;;;16.31;83.78
69200;BME280;56313;49.804;9.952;2022-07-30T05:51:04;99383.47;;;18.72;80.60
69200;BME280;56313;49.804;9.952;2022-07-30T05:53:30;99382.16;;;19.03;74.33
69200;BME280;56313;49.804;9.952;2022-07-30T05:55:55;99379.19;;;19.20;74.70
69200;BME280;56313;49.804;9.952;2022-07-30T05:58:27;99379.16;;;19.33;76.10
69200;BME280;56313;49.804;9.952;2022-07-30T06:00:53;99380.84;;;20.09;72.57
69200;BME280;56313;49.804;9.952;2022-07-30T06:03:18;99380.00;;;19.54;73.82
69200;BME280;56313;49.804;9.952;2022-07-30T06:05:43;99381.84;;;20.08;73.56
69200;BME280;56313;49.804;9.952;2022-07-30T06:08:09;99383.09;;;19.65;69.95
69200;BME280;56313;49.804;9.952;2022-07-30T06:10:34;99386.97;;;19.48;70.38
69200;BME280;56313;49.804;9.952;2022-07-30T06:12:59;99387.13;;;20.42;72.12
69200;BME280;56313;49.804;9.952;2022-07-30T06:15:25;99383.69;;;20.14;71.22
69200;BME280;56313;49.804;9.952;2022-07-30T06:17:51;99389.84;;;19.54;71.60
69200;BME280;56313;49.804;9.952;2022-07-30T06:20:18;99395.56;;;18.39;74.83
69200;BME280;56313;49.804;9.952;2022-07-30T06:22:44;99390.84;;;19.93;73.81
69200;BME280;56313;49.804;9.952;2022-07-30T06:25:19;99395.09;;;20.42;72.05
69200;BME280;56313;49.804;9.952;2022-07-30T06:27:45;99389.97;;;20.47;71.23
69200;BME280;56313;49.804;9.952;2022-07-30T06:30:10;99397.16;;;20.40;72.19
69200;BME280;56313;49.804;9.952;2022-07-30T06:32:36;99389.16;;;20.33;72.27
69200;BME280;56313;49.804;9.952;2022-07-30T06:35:02;99397.69;;;20.55;70.75
69200;BME280;56313;49.804;9.952;2022-07-30T06:37:27;99391.97;;;20.58;71.15
69200;BME280;56313;49.804;9.952;2022-07-30T06:39:56;99387.34;;;20.33;69.89
69200;BME280;56313;49.804;9.952;2022-07-30T06:42:22;99386.34;;;20.14;69.69
69200;BME280;56313;49.804;9.952;2022-07-30T06:44:47;99383.28;;;20.17;71.22
69200;BME280;56313;49.804;9.952;2022-07-30T06:47:13;99387.09;;;20.48;71.13
69200;BME280;56313;49.804;9.952;2022-07-30T06:49:43;99380.00;;;20.81;70.51
69200;BME280;56313;49.804;9.952;2022-07-30T06:52:08;99388.56;;;20.24;71.57
69200;BME280;56313;49.804;9.952;2022-07-30T06:54:34;99396.88;;;20.61;71.30
69200;BME280;56313;49.804;9.952;2022-07-30T06:56:59;99390.66;;;20.74;70.54
69200;BME280;56313;49.804;9.952;2022-07-30T06:59:24;99395.78;;;20.76;70.50
69200;BME280;56313;49.804;9.952;2022-07-30T07:01:51;99406.84;;;20.73;69.96
69200;BME280;56313;49.804;9.952;2022-07-30T07:04:18;99404.19;;;20.73;70.34
69200;BME280;56313;49.804;9.952;2022-07-30T07:06:43;99408.25;;;20.82;69.46
69200;BME280;56313;49.804;9.952;2022-07-30T07:09:09;99410.97;;;20.75;69.64
69200;BME280;56313;49.804;9.952;2022-07-30T07:11:34;99411.59;;;20.71;69.43
69200;BME280;56313;49.804;9.952;2022-07-30T07:13:59;99411.94;;;20.81;69.47
69200;BME280;56313;49.804;9.952;2022-07-30T07:16:25;99409.47;;;20.93;69.04
69200;BME280;56313;49.804;9.952;2022-07-30T07:18:51;99409.06;;;20.89;69.05
69200;BME280;56313;49.804;9.952;2022-07-30T07:21:17;99417.94;;;20.63;67.15
69200;BME280;56313;49.804;9.952;2022-07-30T07:23:43;99410.03;;;19.34;73.43
69200;BME280;56313;49.804;9.952;2022-07-30T07:26:10;99421.91;;;20.33;67.81
69200;BME280;56313;49.804;9.952;2022-07-30T07:28:35;99422.78;;;19.04;73.55
69200;BME280;56313;49.804;9.952;2022-07-30T07:31:01;99411.84;;;20.56;69.60
69200;BME280;56313;49.804;9.952;2022-07-30T07:33:27;99417.41;;;19.53;72.43
69200;BME280;56313;49.804;9.952;2022-07-30T07:35:52;99420.31;;;19.85;69.83
69200;BME280;56313;49.804;9.952;2022-07-30T07:38:19;99416.38;;;19.40;74.54
69200;BME280;56313;49.804;9.952;2022-07-30T07:40:45;99418.81;;;20.50;70.41
69200;BME280;56313;49.804;9.952;2022-07-30T07:43:11;99412.53;;;20.83;69.48
69200;BME280;56313;49.804;9.952;2022-07-30T07:45:36;99415.44;;;20.82;69.51
69200;BME280;56313;49.804;9.952;2022-07-30T07:48:03;99408.03;;;20.84;69.61
69200;BME280;56313;49.804;9.952;2022-07-30T07:50:29;99415.25;;;20.76;69.68
69200;BME280;56313;49.804;9.952;2022-07-30T07:52:54;99418.59;;;20.45;70.21
69200;BME280;56313;49.804;9.952;2022-07-30T07:55:19;99414.78;;;20.86;69.01
69200;BME280;56313;49.804;9.952;2022-07-30T07:57:45;99418.38;;;20.60;70.03
69200;BME280;56313;49.804;9.952;2022-07-30T08:00:13;99420.41;;;20.71;69.79
69200;BME280;56313;49.804;9.952;2022-07-30T08:02:39;99422.22;;;20.71;69.48
69200;BME280;56313;49.804;9.952;2022-07-30T08:05:05;99421.19;;;20.79;69.65
69200;BME280;56313;49.804;9.952;2022-07-30T08:07:32;99424.25;;;20.75;69.59
69200;BME280;56313;49.804;9.952;2022-07-30T08:09:57;99423.84;;;20.79;69.23
69200;BME280;56313;49.804;9.952;2022-07-30T08:12:23;99425.84;;;20.83;68.58
69200;BME280;56313;49.804;9.952;2022-07-30T08:14:48;99416.44;;;20.87;68.92
69200;BME280;56313;49.804;9.952;2022-07-30T08:17:14;99418.47;;;20.85;69.13
69200;BME280;56313;49.804;9.952;2022-07-30T08:19:42;99415.59;;;20.94;68.51
69200;BME280;56313;49.804;9.952;2022-07-30T08:22:07;99420.91;;;20.94;68.04
69200;BME280;56313;49.804;9.952;2022-07-30T08:24:34;99415.19;;;20.83;68.99
69200;BME280;56313;49.804;9.952;2022-07-30T08:27:02;99430.03;;;20.52;67.11
69200;BME280;56313;49.804;9.952;2022-07-30T08:29:27;99428.13;;;20.73;69.27
69200;BME280;56313;49.804;9.952;2022-07-30T08:31:54;99429.53;;;20.89;69.16
69200;BME280;56313;49.804;9.952;2022-07-30T08:34:19;99426.88;;;20.82;68.96
69200;BME280;56313;49.804;9.952;2022-07-30T08:36:48;99419.72;;;20.89;68.67
69200;BME280;56313;49.804;9.952;2022-07-30T08:39:14;99419.91;;;20.95;68.78
69200;BME280;56313;49.804;9.952;2022-07-30T08:41:40;99417.03;;;20.96;67.94
69200;BME280;56313;49.804;9.952;2022-07-30T08:44:09;99423.38;;;20.88;67.20
69200;BME280;56313;49.804;9.952;2022-07-30T08:46:35;99416.44;;;20.87;67.62
69200;BME280;56313;49.804;9.952;2022-07-30T08:49:04;99422.16;;;20.98;68.32
69200;BME280;56313;49.804;9.952;2022-07-30T08:51:31;99426.50;;;20.79;65.75
69200;BME280;56313;49.804;9.952;2022-07-30T08:53:57;99425.94;;;20.70;67.53
69200;BME280;56313;49.804;9.952;2022-07-30T08:56:22;99423.19;;;20.90;68.51
69200;BME280;56313;49.804;9.952;2022-07-30T08:58:48;99420.34;;;20.78;65.74
69200;BME280;56313;49.804;9.952;2022-07-30T09:01:14;99428.09;;;20.93;68.21
69200;BME280;56313;49.804;9.952;2022-07-30T09:03:39;99427.28;;;20.93;67.83
69200;BME280;56313;49.804;9.952;2022-07-30T09:06:05;99427.06;;;21.01;67.19
69200;BME280;56313;49.804;9.952;2022-07-30T09:08:31;99422.50;;;21.08;67.29
69200;BME280;56313;49.804;9.952;2022-07-30T09:10:57;99423.38;;;20.95;64.16
69200;BME280;56313;49.804;9.952;2022-07-30T09:13:32;99429.97;;;21.25;65.75
69200;BME280;56313;49.804;9.952;2022-07-30T09:16:05;99420.16;;;21.25;65.35
69200;BME280;56313;49.804;9.952;2022-07-30T09:18:32;99428.50;;;21.36;63.40
69200;BME280;56313;49.804;9.952;2022-07-30T09:21:21;99423.44;;;21.27;65.09
69200;BME280;56313;49.804;9.952;2022-07-30T09:24:07;99425.25;;;21.59;60.38
69200;BME280;56313;49.804;9.952;2022-07-30T09:26:57;99418.09;;;21.27;66.23
69200;BME280;56313;49.804;9.952;2022-07-30T09:29:29;99418.75;;;21.23;66.59
69200;BME280;56313;49.804;9.952;2022-07-30T09:32:04;99419.81;;;21.15;66.94
69200;BME280;56313;49.804;9.952;2022-07-30T09:36:57;99420.91;;;21.65;61.57
69200;BME280;56313;49.804;9.952;2022-07-30T09:39:40;99425.13;;;21.47;60.70
69200;BME280;56313;49.804;9.952;2022-07-30T09:42:18;99438.19;;;21.23;64.21
69200;BME280;56313;49.804;9.952;2022-07-30T09:44:45;99425.47;;;21.32;62.71
69200;BME280;56313;49.804;9.952;2022-07-30T09:47:31;99428.63;;;21.80;58.40
69200;BME280;56313;49.804;9.952;2022-07-30T09:52:28;99429.81;;;21.20;66.31
69200;BME280;56313;49.804;9.952;2022-07-30T09:54:53;99430.44;;;21.54;63.38
69200;BME280;56313;49.804;9.952;2022-07-30T09:57:19;99430.09;;;21.44;63.02
69200;BME280;56313;49.804;9.952;2022-07-30T09:59:44;99433.13;;;21.47;59.46
69200;BME280;56313;49.804;9.952;2022-07-30T10:02:10;99436.31;;;21.31;57.57
69200;BME280;56313;49.804;9.952;2022-07-30T10:04:36;99431.31;;;21.73;56.66
69200;BME280;56313;49.804;9.952;2022-07-30T10:07:02;99432.81;;;21.95;57.83
69200;BME280;56313;49.804;9.952;2022-07-30T10:09:32;99434.16;;;22.04;57.33
69200;BME280;56313;49.804;9.952;2022-07-30T10:12:03;99429.06;;;21.45;59.51
69200;BME280;56313;49.804;9.952;2022-07-30T10:14:34;99427.44;;;21.44;57.00
69200;BME280;56313;49.804;9.952;2022-07-30T10:17:00;99416.72;;;21.50;55.78
69200;BME280;56313;49.804;9.952;2022-07-30T10:19:26;99419.38;;;21.50;56.62
69200;BME280;56313;49.804;9.952;2022-07-30T10:21:52;99419.16;;;21.52;56.39
69200;BME280;56313;49.804;9.952;2022-07-30T10:24:21;99423.50;;;21.46;60.47
69200;BME280;56313;49.804;9.952;2022-07-30T10:26:48;99425.34;;;21.46;57.65
69200;BME280;56313;49.804;9.952;2022-07-30T10:29:15;99412.38;;;21.88;58.17
69200;BME280;56313;49.804;9.952;2022-07-30T10:31:43;99422.81;;;22.53;52.80
69200;BME280;56313;49.804;9.952;2022-07-30T10:34:08;99419.59;;;21.49;62.83
69200;BME280;56313;49.804;9.952;2022-07-30T10:36:36;99411.25;;;21.71;61.39
69200;BME280;56313;49.804;9.952;2022-07-30T10:39:05;99418.22;;;21.72;54.03
69200;BME280;56313;49.804;9.952;2022-07-30T10:44:15;99405.91;;;21.45;64.32
69200;BME280;56313;49.804;9.952;2022-07-30T10:47:05;99406.47;;;22.05;52.13
69200;BME280;56313;49.804;9.952;2022-07-30T10:49:31;99401.84;;;21.36;64.38
69200;BME280;56313;49.804;9.952;2022-07-30T10:51:57;99413.75;;;21.33;64.39
69200;BME280;56313;49.804;9.952;2022-07-30T10:57:17;99405.63;;;22.30;57.50
69200;BME280;56313;49.804;9.952;2022-07-30T11:02:23;99398.88;;;21.51;63.82
69200;BME280;56313;49.804;9.952;2022-07-30T11:04:50;99410.06;;;21.92;57.10
69200;BME280;56313;49.804;9.952;2022-07-30T11:07:35;99408.25;;;21.86;60.35
69200;BME280;56313;49.804;9.952;2022-07-30T11:10:00;99400.59;;;21.96;59.54
69200;BME280;56313;49.804;9.952;2022-07-30T11:15:08;99397.69;;;22.80;48.36
69200;BME280;56313;49.804;9.952;2022-07-30T11:18:05;99400.06;;;22.69;53.43
69200;BME280;56313;49.804;9.952;2022-07-30T11:20:33;99396.59;;;21.55;63.71
69200;BME280;56313;49.804;9.952;2022-07-30T11:23:11;99381.53;;;21.42;64.39
69200;BME280;56313;49.804;9.952;2022-07-30T11:25:53;99398.50;;;21.47;63.49
69200;BME280;56313;49.804;9.952;2022-07-30T11:28:44;99402.78;;;22.06;49.75
69200;BME280;56313;49.804;9.952;2022-07-30T11:31:32;99379.19;;;21.52;63.35
69200;BME280;56313;49.804;9.952;2022-07-30T11:37:13;99382.81;;;21.90;60.18
69200;BME280;56313;49.804;9.952;2022-07-30T11:44:49;99371.06;;;22.35;55.99
69200;BME280;56313;49.804;9.952;2022-07-30T11:47:15;99373.50;;;21.48;62.71
69200;BME280;56313;49.804;9.952;2022-07-30T11:49:42;99382.38;;;21.35;63.22
69200;BME280;56313;49.804;9.952;2022-07-30T11:52:07;99375.72;;;21.51;62.85
69200;BME280;56313;49.804;9.952;2022-07-30T11:54:50;99389.94;;;22.59;53.97
69200;BME280;56313;49.804;9.952;2022-07-30T11:57:15;99383.63;;;21.90;60.01
69200;BME280;56313;49.804;9.952;2022-07-30T11:59:54;99385.50;;;21.58;61.84
69200;BME280;56313;49.804;9.952;2022-07-30T12:02:26;99382.72;;;21.46;62.22
69200;BME280;56313;49.804;9.952;2022-07-30T12:04:51;99386.38;;;21.51;62.17
69200;BME280;56313;49.804;9.952;2022-07-30T12:07:22;99392.44;;;21.33;63.73
69200;BME280;56313;49.804;9.952;2022-07-30T12:09:48;99381.66;;;22.05;59.23
69200;BME280;56313;49.804;9.952;2022-07-30T12:12:23;99380.47;;;21.43;63.86
69200;BME280;56313;49.804;9.952;2022-07-30T12:14:49;99379.13;;;21.33;63.99
69200;BME280;56313;49.804;9.952;2022-07-30T12:17:15;99380.63;;;22.43;55.05
69200;BME280;56313;49.804;9.952;2022-07-30T12:19:45;99391.31;;;21.80;56.58
69200;BME280;56313;49.804;9.952;2022-07-30T12:22:11;99388.56;;;22.12;56.77
69200;BME280;56313;49.804;9.952;2022-07-30T12:24:37;99380.88;;;21.72;61.00
69200;BME280;56313;49.804;9.952;2022-07-30T12:27:04;99388.41;;;21.82;60.54
69200;BME280;56313;49.804;9.952;2022-07-30T12:29:30;99380.69;;;21.99;59.79
69200;BME280;56313;49.804;9.952;2022-07-30T12:31:56;99391.38;;;22.36;48.82
69200;BME280;56313;49.804;9.952;2022-07-30T12:34:23;99388.19;;;22.27;56.57
69200;BME280;56313;49.804;9.952;2022-07-30T12:36:49;99384.50;;;21.84;60.89
69200;BME280;56313;49.804;9.952;2022-07-30T12:39:19;99394.00;;;21.73;60.46
69200;BME280;56313;49.804;9.952;2022-07-30T12:41:50;99388.97;;;21.90;58.91
69200;BME280;56313;49.804;9.952;2022-07-30T12:44:39;99387.22;;;22.22;58.52
69200;BME280;56313;49.804;9.952;2022-07-30T12:50:15;99374.84;;;21.58;62.04
69200;BME280;56313;49.804;9.952;2022-07-30T12:52:47;99375.78;;;21.45;62.70
69200;BME280;56313;49.804;9.952;2022-07-30T12:55:13;99362.84;;;21.48;62.63
69200;BME280;56313;49.804;9.952;2022-07-30T12:58:07;99385.69;;;22.33;50.61
69200;BME280;56313;49.804;9.952;2022-07-30T13:00:45;99381.72;;;22.91;52.45
69200;BME280;56313;49.804;9.952;2022-07-30T13:03:26;99377.63;;;21.70;61.14
69200;BME280;56313;49.804;9.952;2022-07-30T13:05:54;99361.84;;;21.75;60.83
69200;BME280;56313;49.804;9.952;2022-07-30T13:08:52;99368.41;;;21.72;61.24
69200;BME280;56313;49.804;9.952;2022-07-30T13:11:20;99374.13;;;23.07;45.94
69200;BME280;56313;49.804;9.952;2022-07-30T13:13:46;99366.59;;;23.16;54.63
69200;BME280;56313;49.804;9.952;2022-07-30T13:16:12;99362.53;;;22.45;57.37
69200;BME280;56313;49.804;9.952;2022-07-30T13:18:38;99367.50;;;22.04;56.25
69200;BME280;56313;49.804;9.952;2022-07-30T13:21:05;99364.41;;;21.82;60.59
69200;BME280;56313;49.804;9.952;2022-07-30T13:23:35;99358.38;;;21.93;60.38
69200;BME280;56313;49.804;9.952;2022-07-30T13:26:05;99365.44;;;22.25;58.15
69200;BME280;56313;49.804;9.952;2022-07-30T13:28:33;99354.47;;;23.01;54.85
69200;BME280;56313;49.804;9.952;2022-07-30T13:31:10;99362.50;;;21.89;60.46
69200;BME280;56313;49.804;9.952;2022-07-30T13:33:39;99350.97;;;22.14;58.86